sensor_id;sensor_type;location;lat;lon;timestamp;temperature;humidity
28654;DHT22;24320;56.980;24.336;2023-04-29T00:01:24;0.20;99.90
28654;DHT22;24320;56.980;24.336;2023-04-29T00:03:52;0.20;99.90
28654;DHT22;24320;56.980;24.336;2023-04-29T00:06:19;0.10;99.90
28654;DHT22;24320;56.980;24.336;2023-04-29T00:08:47;0.10;99.90
28654;DHT22;24320;56.980;24.336;2023-04-29T00:11:14;0.00;99.90
28654;DHT22;24320;56.980;24.336;2023-04-29T00:13:42;0.00;99.90
28654;DHT22;24320;56.980;24.336;2023-04-29T00:16:09;0.00;99.90
28654;DHT22;24320;56.980;24.336;2023-04-29T00:18:36;0.00;99.90
28654;DHT22;24320;56.980;24.336;2023-04-29T00:21:03;0.10;99.90
28654;DHT22;24320;56.980;24.336;2023-04-29T00:23:33;0.10;99.90
28654;DHT22;24320;56.980;24.336;2023-04-29T00:26:00;0.10;99.90
28654;DHT22;24320;56.980;24.336;2023-04-29T00:28:27;0.10;99.90
28654;DHT22;24320;56.980;24.336;2023-04-29T00:30:54;0.00;99.90
28654;DHT22;24320;56.980;24.336;2023-04-29T00:33:22;0.00;99.90
28654;DHT22;24320;56.980;24.336;2023-04-29T00:35:49;-0.10;99.90
28654;DHT22;24320;56.980;24.336;2023-04-29T00:38:16;-0.10;99.90
28654;DHT22;24320;56.980;24.336;2023-04-29T00:40:44;-0.20;99.90
28654;DHT22;24320;56.980;24.336;2023-04-29T00:43:11;-0.20;99.90
28654;DHT22;24320;56.980;24.336;2023-04-29T00:45:38;-0.20;99.90
28654;DHT22;24320;56.980;24.336;2023-04-29T00:48:05;-0.30;99.90
28654;DHT22;24320;56.980;24.336;2023-04-29T00:50:33;-0.30;99.90
28654;DHT22;24320;56.980;24.336;2023-04-29T00:53:00;-0.30;99.90
28654;DHT22;24320;56.980;24.336;2023-04-29T00:55:28;-0.30;99.90
28654;DHT22;24320;56.980;24.336;2023-04-29T00:57:56;-0.40;99.90
28654;DHT22;24320;56.980;24.336;2023-04-29T01:00:23;-0.40;99.90
28654;DHT22;24320;56.980;24.336;2023-04-29T01:02:52;-0.40;99.90
28654;DHT22;24320;56.980;24.336;2023-04-29T01:05:23;-0.50;99.90
28654;DHT22;24320;56.980;24.336;2023-04-29T01:10:43;-0.40;99.90
28654;DHT22;24320;56.980;24.336;2023-04-29T01:13:17;-0.40;99.90
28654;DHT22;24320;56.980;24.336;2023-04-29T01:16:24;-0.40;99.90
28654;DHT22;24320;56.980;24.336;2023-04-29T01:18:57;-0.40;99.90
28654;DHT22;24320;56.980;24.336;2023-04-29T01:21:24;-0.40;99.90
28654;DHT22;24320;56.980;24.336;2023-04-29T01:23:51;-0.40;99.90
28654;DHT22;24320;56.980;24.336;2023-04-29T01:26:22;-0.50;99.90
28654;DHT22;24320;56.980;24.336;2023-04-29T01:31:30;-0.50;99.90
28654;DHT22;24320;56.980;24.336;2023-04-29T01:37:04;-0.50;99.90
28654;DHT22;24320;56.980;24.336;2023-04-29T01:39:44;-0.60;99.90
28654;DHT22;24320;56.980;24.336;2023-04-29T01:42:22;-0.60;99.90
28654;DHT22;24320;56.980;24.336;2023-04-29T01:44:52;-0.70;99.90
28654;DHT22;24320;56.980;24.336;2023-04-29T01:47:20;-0.70;99.90
28654;DHT22;24320;56.980;24.336;2023-04-29T01:49:48;-0.70;99.90
28654;DHT22;24320;56.980;24.336;2023-04-29T01:52:15;-0.80;99.90
28654;DHT22;24320;56.980;24.336;2023-04-29T01:54:43;-0.80;99.90
28654;DHT22;24320;56.980;24.336;2023-04-29T01:57:10;-0.80;99.90
28654;DHT22;24320;56.980;24.336;2023-04-29T01:59:37;-0.90;99.90
28654;DHT22;24320;56.980;24.336;2023-04-29T02:02:04;-0.90;99.90
28654;DHT22;24320;56.980;24.336;2023-04-29T02:04:31;-0.90;99.90
28654;DHT22;24320;56.980;24.336;2023-04-29T02:07:00;-0.90;99.90
28654;DHT22;24320;56.980;24.336;2023-04-29T02:09:27;-0.90;99.90
28654;DHT22;24320;56.980;24.336;2023-04-29T02:11:54;-0.90;99.90
28654;DHT22;24320;56.980;24.336;2023-04-29T02:14:21;-0.90;99.90
28654;DHT22;24320;56.980;24.336;2023-04-29T02:16:48;-0.90;99.90
28654;DHT22;24320;56.980;24.336;2023-04-29T02:19:15;-0.80;99.90
28654;DHT22;24320;56.980;24.336;2023-04-29T02:21:43;-0.90;99.90
28654;DHT22;24320;56.980;24.336;2023-04-29T02:24:10;-0.90;99.90
28654;DHT22;24320;56.980;24.336;2023-04-29T02:26:36;-0.90;99.90
28654;DHT22;24320;56.980;24.336;2023-04-29T02:29:04;-1.00;99.90
28654;DHT22;24320;56.980;24.336;2023-04-29T02:31:31;-1.00;99.90
28654;DHT22;24320;56.980;24.336;2023-04-29T02:33:58;-1.10;99.90
28654;DHT22;24320;56.980;24.336;2023-04-29T02:36:26;-1.10;99.90
28654;DHT22;24320;56.980;24.336;2023-04-29T02:38:53;-1.10;99.90
28654;DHT22;24320;56.980;24.336;2023-04-29T02:41:21;-1.10;99.90
28654;DHT22;24320;56.980;24.336;2023-04-29T02:43:48;-1.10;99.90
28654;DHT22;24320;56.980;24.336;2023-04-29T02:46:15;-1.10;99.90
28654;DHT22;24320;56.980;24.336;2023-04-29T02:48:43;-1.20;99.90
28654;DHT22;24320;56.980;24.336;2023-04-29T02:51:14;-1.20;99.90
28654;DHT22;24320;56.980;24.336;2023-04-29T02:53:41;-1.20;99.90
28654;DHT22;24320;56.980;24.336;2023-04-29T02:56:08;-1.20;99.90
28654;DHT22;24320;56.980;24.336;2023-04-29T02:58:35;-1.20;99.90
28654;DHT22;24320;56.980;24.336;2023-04-29T03:01:02;-1.10;99.90
28654;DHT22;24320;56.980;24.336;2023-04-29T03:03:30;-1.10;99.90
28654;DHT22;24320;56.980;24.336;2023-04-29T03:05:57;-1.10;99.90
28654;DHT22;24320;56.980;24.336;2023-04-29T03:08:24;-1.10;99.90
28654;DHT22;24320;56.980;24.336;2023-04-29T03:10:51;-1.00;99.90
28654;DHT22;24320;56.980;24.336;2023-04-29T03:13:19;-1.00;99.90
28654;DHT22;24320;56.980;24.336;2023-04-29T03:15:46;-1.00;99.90
28654;DHT22;24320;56.980;24.336;2023-04-29T03:18:13;-0.90;99.90
28654;DHT22;24320;56.980;24.336;2023-04-29T03:20:40;-0.70;99.90
28654;DHT22;24320;56.980;24.336;2023-04-29T03:23:07;-0.70;99.90
28654;DHT22;24320;56.980;24.336;2023-04-29T03:25:34;-0.50;99.90
28654;DHT22;24320;56.980;24.336;2023-04-29T03:28:03;-0.20;99.90
28654;DHT22;24320;56.980;24.336;2023-04-29T03:30:30;0.40;99.90
28654;DHT22;24320;56.980;24.336;2023-04-29T03:32:57;1.00;99.90
28654;DHT22;24320;56.980;24.336;2023-04-29T03:35:26;1.90;99.90
28654;DHT22;24320;56.980;24.336;2023-04-29T03:37:53;3.00;99.90
28654;DHT22;24320;56.980;24.336;2023-04-29T03:40:20;4.00;99.90
28654;DHT22;24320;56.980;24.336;2023-04-29T03:42:47;4.90;99.90
28654;DHT22;24320;56.980;24.336;2023-04-29T03:45:15;5.60;99.90
28654;DHT22;24320;56.980;24.336;2023-04-29T03:47:41;6.00;99.90
28654;DHT22;24320;56.980;24.336;2023-04-29T03:50:09;6.20;99.90
28654;DHT22;24320;56.980;24.336;2023-04-29T03:52:36;6.50;99.90
28654;DHT22;24320;56.980;24.336;2023-04-29T03:55:03;6.80;99.90
28654;DHT22;24320;56.980;24.336;2023-04-29T03:57:30;7.10;99.90
28654;DHT22;24320;56.980;24.336;2023-04-29T03:59:57;7.50;99.90
28654;DHT22;24320;56.980;24.336;2023-04-29T04:02:24;7.90;99.90
28654;DHT22;24320;56.980;24.336;2023-04-29T04:04:52;8.20;99.90
28654;DHT22;24320;56.980;24.336;2023-04-29T04:07:21;8.40;99.90
28654;DHT22;24320;56.980;24.336;2023-04-29T04:09:48;8.70;99.90
28654;DHT22;24320;56.980;24.336;2023-04-29T04:12:15;8.80;99.90
28654;DHT22;24320;56.980;24.336;2023-04-29T04:14:41;8.80;99.90
28654;DHT22;24320;56.980;24.336;2023-04-29T04:17:09;9.00;99.90
28654;DHT22;24320;56.980;24.336;2023-04-29T04:19:36;9.10;99.90
28654;DHT22;24320;56.980;24.336;2023-04-29T04:22:03;9.30;99.90
28654;DHT22;24320;56.980;24.336;2023-04-29T04:24:30;9.70;99.90
28654;DHT22;24320;56.980;24.336;2023-04-29T04:26:57;10.00;99.90
28654;DHT22;24320;56.980;24.336;2023-04-29T04:29:24;10.20;99.90
28654;DHT22;24320;56.980;24.336;2023-04-29T04:31:51;10.50;99.90
28654;DHT22;24320;56.980;24.336;2023-04-29T04:34:18;10.60;99.90
28654;DHT22;24320;56.980;24.336;2023-04-29T04:36:45;10.30;99.90
28654;DHT22;24320;56.980;24.336;2023-04-29T04:39:12;10.20;99.90
28654;DHT22;24320;56.980;24.336;2023-04-29T04:41:39;10.40;99.90
28654;DHT22;24320;56.980;24.336;2023-04-29T04:44:06;10.50;99.90
28654;DHT22;24320;56.980;24.336;2023-04-29T04:46:33;10.80;99.90
28654;DHT22;24320;56.980;24.336;2023-04-29T04:49:00;11.00;99.90
28654;DHT22;24320;56.980;24.336;2023-04-29T04:51:27;11.00;99.90
28654;DHT22;24320;56.980;24.336;2023-04-29T04:53:55;10.80;99.90
28654;DHT22;24320;56.980;24.336;2023-04-29T04:56:22;10.60;99.90
28654;DHT22;24320;56.980;24.336;2023-04-29T04:58:49;10.60;99.90
28654;DHT22;24320;56.980;24.336;2023-04-29T05:01:16;10.80;99.90
28654;DHT22;24320;56.980;24.336;2023-04-29T05:03:43;10.90;99.90
28654;DHT22;24320;56.980;24.336;2023-04-29T05:06:10;11.20;99.90
28654;DHT22;24320;56.980;24.336;2023-04-29T05:08:38;11.40;99.90
28654;DHT22;24320;56.980;24.336;2023-04-29T05:11:05;11.90;99.90
28654;DHT22;24320;56.980;24.336;2023-04-29T05:13:32;12.20;99.90
28654;DHT22;24320;56.980;24.336;2023-04-29T05:16:02;12.50;99.90
28654;DHT22;24320;56.980;24.336;2023-04-29T05:18:32;12.90;99.90
28654;DHT22;24320;56.980;24.336;2023-04-29T05:20:59;13.10;99.90
28654;DHT22;24320;56.980;24.336;2023-04-29T05:23:26;13.20;99.70
28654;DHT22;24320;56.980;24.336;2023-04-29T05:25:54;13.40;99.50
28654;DHT22;24320;56.980;24.336;2023-04-29T05:28:21;13.80;98.50
28654;DHT22;24320;56.980;24.336;2023-04-29T05:30:51;14.20;97.20
28654;DHT22;24320;56.980;24.336;2023-04-29T05:33:18;14.20;96.10
28654;DHT22;24320;56.980;24.336;2023-04-29T05:35:46;14.40;95.00
28654;DHT22;24320;56.980;24.336;2023-04-29T05:38:14;14.60;95.40
28654;DHT22;24320;56.980;24.336;2023-04-29T05:40:41;14.80;93.10
28654;DHT22;24320;56.980;24.336;2023-04-29T05:43:08;14.80;92.70
28654;DHT22;24320;56.980;24.336;2023-04-29T05:45:35;14.90;93.30
28654;DHT22;24320;56.980;24.336;2023-04-29T05:48:02;15.00;92.00
28654;DHT22;24320;56.980;24.336;2023-04-29T05:50:29;15.00;92.60
28654;DHT22;24320;56.980;24.336;2023-04-29T05:52:56;15.10;91.40
28654;DHT22;24320;56.980;24.336;2023-04-29T05:55:23;15.30;91.60
28654;DHT22;24320;56.980;24.336;2023-04-29T05:57:50;15.40;91.40
28654;DHT22;24320;56.980;24.336;2023-04-29T06:00:17;15.50;90.30
28654;DHT22;24320;56.980;24.336;2023-04-29T06:02:44;15.60;86.50
28654;DHT22;24320;56.980;24.336;2023-04-29T06:05:24;15.40;86.10
28654;DHT22;24320;56.980;24.336;2023-04-29T06:07:53;15.50;87.70
28654;DHT22;24320;56.980;24.336;2023-04-29T06:10:20;15.40;87.40
28654;DHT22;24320;56.980;24.336;2023-04-29T06:12:47;15.50;88.40
28654;DHT22;24320;56.980;24.336;2023-04-29T06:15:17;15.50;83.50
28654;DHT22;24320;56.980;24.336;2023-04-29T06:17:44;15.50;85.30
28654;DHT22;24320;56.980;24.336;2023-04-29T06:20:11;15.60;85.50
28654;DHT22;24320;56.980;24.336;2023-04-29T06:22:38;15.60;83.90
28654;DHT22;24320;56.980;24.336;2023-04-29T06:25:05;15.70;84.20
28654;DHT22;24320;56.980;24.336;2023-04-29T06:27:32;15.60;84.00
28654;DHT22;24320;56.980;24.336;2023-04-29T06:29:59;15.40;83.20
28654;DHT22;24320;56.980;24.336;2023-04-29T06:32:27;15.10;83.20
28654;DHT22;24320;56.980;24.336;2023-04-29T06:34:54;14.80;83.90
28654;DHT22;24320;56.980;24.336;2023-04-29T06:37:21;14.60;86.60
28654;DHT22;24320;56.980;24.336;2023-04-29T06:39:48;14.70;84.70
28654;DHT22;24320;56.980;24.336;2023-04-29T06:42:15;15.00;86.90
28654;DHT22;24320;56.980;24.336;2023-04-29T06:44:42;15.20;83.20
28654;DHT22;24320;56.980;24.336;2023-04-29T06:47:10;14.90;79.40
28654;DHT22;24320;56.980;24.336;2023-04-29T06:49:37;14.30;81.80
28654;DHT22;24320;56.980;24.336;2023-04-29T06:52:04;14.10;84.80
28654;DHT22;24320;56.980;24.336;2023-04-29T06:54:31;14.30;85.70
28654;DHT22;24320;56.980;24.336;2023-04-29T06:56:58;14.40;77.80
28654;DHT22;24320;56.980;24.336;2023-04-29T06:59:25;14.30;77.40
28654;DHT22;24320;56.980;24.336;2023-04-29T07:01:52;14.20;78.90
28654;DHT22;24320;56.980;24.336;2023-04-29T07:04:19;14.60;77.90
28654;DHT22;24320;56.980;24.336;2023-04-29T07:06:47;15.10;83.30
28654;DHT22;24320;56.980;24.336;2023-04-29T07:09:14;15.60;74.70
28654;DHT22;24320;56.980;24.336;2023-04-29T07:11:41;15.30;73.20
28654;DHT22;24320;56.980;24.336;2023-04-29T07:14:08;14.70;72.40
28654;DHT22;24320;56.980;24.336;2023-04-29T07:16:35;14.40;75.10
28654;DHT22;24320;56.980;24.336;2023-04-29T07:19:03;14.50;79.20
28654;DHT22;24320;56.980;24.336;2023-04-29T07:21:30;15.10;76.30
28654;DHT22;24320;56.980;24.336;2023-04-29T07:23:57;15.40;75.10
28654;DHT22;24320;56.980;24.336;2023-04-29T07:26:27;15.60;71.90
28654;DHT22;24320;56.980;24.336;2023-04-29T07:28:54;15.90;72.40
28654;DHT22;24320;56.980;24.336;2023-04-29T07:31:20;16.10;73.10
28654;DHT22;24320;56.980;24.336;2023-04-29T07:33:48;16.30;73.10
28654;DHT22;24320;56.980;24.336;2023-04-29T07:36:15;16.40;69.70
28654;DHT22;24320;56.980;24.336;2023-04-29T07:38:42;16.60;69.50
28654;DHT22;24320;56.980;24.336;2023-04-29T07:41:09;16.90;71.20
28654;DHT22;24320;56.980;24.336;2023-04-29T07:43:36;16.90;67.00
28654;DHT22;24320;56.980;24.336;2023-04-29T07:46:04;16.90;65.70
28654;DHT22;24320;56.980;24.336;2023-04-29T07:48:36;16.80;67.90
28654;DHT22;24320;56.980;24.336;2023-04-29T07:51:04;16.70;69.10
28654;DHT22;24320;56.980;24.336;2023-04-29T07:53:32;16.60;67.10
28654;DHT22;24320;56.980;24.336;2023-04-29T07:56:03;16.60;61.30
28654;DHT22;24320;56.980;24.336;2023-04-29T07:58:30;16.30;57.70
28654;DHT22;24320;56.980;24.336;2023-04-29T08:01:07;15.90;60.60
28654;DHT22;24320;56.980;24.336;2023-04-29T08:03:36;15.80;60.20
28654;DHT22;24320;56.980;24.336;2023-04-29T08:06:06;15.60;61.40
28654;DHT22;24320;56.980;24.336;2023-04-29T08:08:34;15.50;66.80
28654;DHT22;24320;56.980;24.336;2023-04-29T08:11:01;15.20;62.40
28654;DHT22;24320;56.980;24.336;2023-04-29T08:13:28;14.80;66.30
28654;DHT22;24320;56.980;24.336;2023-04-29T08:15:55;14.60;63.40
28654;DHT22;24320;56.980;24.336;2023-04-29T08:18:22;14.40;64.60
28654;DHT22;24320;56.980;24.336;2023-04-29T08:20:49;14.20;66.60
28654;DHT22;24320;56.980;24.336;2023-04-29T08:23:16;14.00;64.50
28654;DHT22;24320;56.980;24.336;2023-04-29T08:25:44;13.80;64.70
28654;DHT22;24320;56.980;24.336;2023-04-29T08:28:11;13.70;60.70
28654;DHT22;24320;56.980;24.336;2023-04-29T08:30:42;13.60;61.50
28654;DHT22;24320;56.980;24.336;2023-04-29T08:33:09;13.30;68.20
28654;DHT22;24320;56.980;24.336;2023-04-29T08:35:36;13.40;67.10
28654;DHT22;24320;56.980;24.336;2023-04-29T08:38:07;13.40;64.00
28654;DHT22;24320;56.980;24.336;2023-04-29T08:40:42;13.40;62.60
28654;DHT22;24320;56.980;24.336;2023-04-29T08:43:09;13.40;60.00
28654;DHT22;24320;56.980;24.336;2023-04-29T08:45:37;13.30;64.00
28654;DHT22;24320;56.980;24.336;2023-04-29T08:48:08;13.40;61.80
28654;DHT22;24320;56.980;24.336;2023-04-29T08:50:40;13.50;60.30
28654;DHT22;24320;56.980;24.336;2023-04-29T08:53:11;13.50;63.00
28654;DHT22;24320;56.980;24.336;2023-04-29T08:55:46;13.70;64.50
28654;DHT22;24320;56.980;24.336;2023-04-29T08:58:14;14.00;61.50
28654;DHT22;24320;56.980;24.336;2023-04-29T09:00:43;14.20;63.40
28654;DHT22;24320;56.980;24.336;2023-04-29T09:03:17;14.30;64.40
28654;DHT22;24320;56.980;24.336;2023-04-29T09:05:48;14.50;59.50
28654;DHT22;24320;56.980;24.336;2023-04-29T09:08:18;14.50;60.20
28654;DHT22;24320;56.980;24.336;2023-04-29T09:10:47;14.50;60.20
28654;DHT22;24320;56.980;24.336;2023-04-29T09:13:28;14.50;57.20
28654;DHT22;24320;56.980;24.336;2023-04-29T09:15:56;14.40;60.60
28654;DHT22;24320;56.980;24.336;2023-04-29T09:21:22;14.40;60.50
28654;DHT22;24320;56.980;24.336;2023-04-29T09:23:57;14.50;60.40
28654;DHT22;24320;56.980;24.336;2023-04-29T09:26:25;14.40;60.00
28654;DHT22;24320;56.980;24.336;2023-04-29T09:29:21;14.30;60.70
28654;DHT22;24320;56.980;24.336;2023-04-29T09:31:49;14.30;62.80
28654;DHT22;24320;56.980;24.336;2023-04-29T09:34:16;14.30;59.20
28654;DHT22;24320;56.980;24.336;2023-04-29T09:36:50;14.10;60.20
28654;DHT22;24320;56.980;24.336;2023-04-29T09:39:22;14.00;64.80
28654;DHT22;24320;56.980;24.336;2023-04-29T09:44:23;14.00;65.50
28654;DHT22;24320;56.980;24.336;2023-04-29T09:47:00;14.10;58.00
28654;DHT22;24320;56.980;24.336;2023-04-29T09:49:35;14.10;63.50
28654;DHT22;24320;56.980;24.336;2023-04-29T09:52:05;14.10;61.50
28654;DHT22;24320;56.980;24.336;2023-04-29T09:54:34;14.10;57.50
28654;DHT22;24320;56.980;24.336;2023-04-29T09:57:03;14.10;60.80
28654;DHT22;24320;56.980;24.336;2023-04-29T09:59:34;14.20;61.80
28654;DHT22;24320;56.980;24.336;2023-04-29T10:02:07;14.00;57.80
28654;DHT22;24320;56.980;24.336;2023-04-29T10:04:39;13.90;59.50
28654;DHT22;24320;56.980;24.336;2023-04-29T10:07:13;13.90;61.80
28654;DHT22;24320;56.980;24.336;2023-04-29T10:09:49;13.90;60.30
28654;DHT22;24320;56.980;24.336;2023-04-29T10:12:46;13.90;60.80
28654;DHT22;24320;56.980;24.336;2023-04-29T10:15:48;14.00;57.80
28654;DHT22;24320;56.980;24.336;2023-04-29T10:18:20;13.90;60.10
28654;DHT22;24320;56.980;24.336;2023-04-29T10:20:48;13.90;60.40
28654;DHT22;24320;56.980;24.336;2023-04-29T10:23:16;14.00;61.50
28654;DHT22;24320;56.980;24.336;2023-04-29T10:25:46;14.20;59.70
28654;DHT22;24320;56.980;24.336;2023-04-29T10:28:15;14.10;56.90
28654;DHT22;24320;56.980;24.336;2023-04-29T10:30:44;13.90;59.10
28654;DHT22;24320;56.980;24.336;2023-04-29T10:33:11;13.90;56.80
28654;DHT22;24320;56.980;24.336;2023-04-29T10:35:43;13.90;57.90
28654;DHT22;24320;56.980;24.336;2023-04-29T10:40:48;13.70;58.50
28654;DHT22;24320;56.980;24.336;2023-04-29T10:43:22;13.70;60.00
28654;DHT22;24320;56.980;24.336;2023-04-29T10:45:50;13.70;57.60
28654;DHT22;24320;56.980;24.336;2023-04-29T10:48:37;13.70;56.20
28654;DHT22;24320;56.980;24.336;2023-04-29T10:51:04;13.90;58.10
28654;DHT22;24320;56.980;24.336;2023-04-29T10:53:31;14.00;55.60
28654;DHT22;24320;56.980;24.336;2023-04-29T10:56:08;13.80;55.50
28654;DHT22;24320;56.980;24.336;2023-04-29T10:58:44;13.70;55.50
28654;DHT22;24320;56.980;24.336;2023-04-29T11:01:16;13.70;56.30
28654;DHT22;24320;56.980;24.336;2023-04-29T11:06:37;13.50;49.70
28654;DHT22;24320;56.980;24.336;2023-04-29T11:09:11;13.30;51.30
28654;DHT22;24320;56.980;24.336;2023-04-29T11:17:12;13.50;52.70
28654;DHT22;24320;56.980;24.336;2023-04-29T11:19:49;13.60;49.90
28654;DHT22;24320;56.980;24.336;2023-04-29T11:24:58;13.40;52.80
28654;DHT22;24320;56.980;24.336;2023-04-29T11:29:57;13.30;55.70
28654;DHT22;24320;56.980;24.336;2023-04-29T11:32:27;13.30;58.20
28654;DHT22;24320;56.980;24.336;2023-04-29T11:34:55;13.50;59.20
28654;DHT22;24320;56.980;24.336;2023-04-29T11:37:32;13.70;59.20
28654;DHT22;24320;56.980;24.336;2023-04-29T11:39:59;14.00;58.00
28654;DHT22;24320;56.980;24.336;2023-04-29T11:42:29;14.20;56.30
28654;DHT22;24320;56.980;24.336;2023-04-29T11:44:56;14.30;61.20
28654;DHT22;24320;56.980;24.336;2023-04-29T11:47:29;14.40;60.40
28654;DHT22;24320;56.980;24.336;2023-04-29T11:50:04;14.60;56.80
28654;DHT22;24320;56.980;24.336;2023-04-29T11:52:32;14.60;59.60
28654;DHT22;24320;56.980;24.336;2023-04-29T11:55:01;14.60;62.10
28654;DHT22;24320;56.980;24.336;2023-04-29T11:57:29;14.70;62.30
28654;DHT22;24320;56.980;24.336;2023-04-29T11:59:58;14.70;60.40
28654;DHT22;24320;56.980;24.336;2023-04-29T12:02:33;14.60;63.00
28654;DHT22;24320;56.980;24.336;2023-04-29T12:05:05;14.60;59.70
28654;DHT22;24320;56.980;24.336;2023-04-29T12:07:34;14.60;61.30
28654;DHT22;24320;56.980;24.336;2023-04-29T12:10:10;14.70;61.70
28654;DHT22;24320;56.980;24.336;2023-04-29T12:12:38;14.90;62.00
28654;DHT22;24320;56.980;24.336;2023-04-29T12:15:16;15.20;64.30
28654;DHT22;24320;56.980;24.336;2023-04-29T12:17:48;15.40;61.30
28654;DHT22;24320;56.980;24.336;2023-04-29T12:20:16;15.50;59.70
28654;DHT22;24320;56.980;24.336;2023-04-29T12:22:49;15.40;61.10
28654;DHT22;24320;56.980;24.336;2023-04-29T12:25:19;15.30;57.30
28654;DHT22;24320;56.980;24.336;2023-04-29T12:27:50;15.30;61.00
28654;DHT22;24320;56.980;24.336;2023-04-29T12:30:17;15.50;60.00
28654;DHT22;24320;56.980;24.336;2023-04-29T12:32:45;15.60;60.30
28654;DHT22;24320;56.980;24.336;2023-04-29T12:35:15;15.60;61.90
28654;DHT22;24320;56.980;24.336;2023-04-29T12:37:46;15.50;59.00
28654;DHT22;24320;56.980;24.336;2023-04-29T12:40:14;15.40;59.80
28654;DHT22;24320;56.980;24.336;2023-04-29T12:42:42;15.30;59.60
28654;DHT22;24320;56.980;24.336;2023-04-29T12:45:29;15.10;58.90
28654;DHT22;24320;56.980;24.336;2023-04-29T12:47:58;14.90;61.90
28654;DHT22;24320;56.980;24.336;2023-04-29T12:50:36;14.90;62.60
28654;DHT22;24320;56.980;24.336;2023-04-29T12:53:04;14.90;61.40
28654;DHT22;24320;56.980;24.336;2023-04-29T12:55:36;15.00;63.20
28654;DHT22;24320;56.980;24.336;2023-04-29T12:58:04;15.10;63.00
28654;DHT22;24320;56.980;24.336;2023-04-29T13:00:31;15.30;62.70
28654;DHT22;24320;56.980;24.336;2023-04-29T13:03:00;15.50;60.70
28654;DHT22;24320;56.980;24.336;2023-04-29T13:05:31;15.60;60.60
28654;DHT22;24320;56.980;24.336;2023-04-29T13:07:58;15.90;59.80
28654;DHT22;24320;56.980;24.336;2023-04-29T13:10:25;16.10;56.40
28654;DHT22;24320;56.980;24.336;2023-04-29T13:12:54;16.10;58.60
28654;DHT22;24320;56.980;24.336;2023-04-29T13:15:24;16.20;59.50
28654;DHT22;24320;56.980;24.336;2023-04-29T13:17:52;16.20;57.80
28654;DHT22;24320;56.980;24.336;2023-04-29T13:20:20;16.20;59.90
28654;DHT22;24320;56.980;24.336;2023-04-29T13:22:50;16.20;58.30
28654;DHT22;24320;56.980;24.336;2023-04-29T13:28:02;15.90;57.80
28654;DHT22;24320;56.980;24.336;2023-04-29T13:30:41;15.70;57.00
28654;DHT22;24320;56.980;24.336;2023-04-29T13:33:08;15.50;57.40
28654;DHT22;24320;56.980;24.336;2023-04-29T13:35:44;15.30;57.60
28654;DHT22;24320;56.980;24.336;2023-04-29T13:38:11;15.20;59.00
28654;DHT22;24320;56.980;24.336;2023-04-29T13:40:38;15.20;59.90
28654;DHT22;24320;56.980;24.336;2023-04-29T13:43:12;15.20;60.80
28654;DHT22;24320;56.980;24.336;2023-04-29T13:45:48;15.30;59.40
28654;DHT22;24320;56.980;24.336;2023-04-29T13:48:15;15.40;58.40
28654;DHT22;24320;56.980;24.336;2023-04-29T13:51:02;15.60;59.60
28654;DHT22;24320;56.980;24.336;2023-04-29T13:53:52;15.50;58.90
28654;DHT22;24320;56.980;24.336;2023-04-29T13:56:22;15.50;60.50
28654;DHT22;24320;56.980;24.336;2023-04-29T13:58:54;15.50;59.80
28654;DHT22;24320;56.980;24.336;2023-04-29T14:01:24;15.50;59.80
28654;DHT22;24320;56.980;24.336;2023-04-29T14:04:10;15.20;61.30
28654;DHT22;24320;56.980;24.336;2023-04-29T14:06:38;15.00;61.70
28654;DHT22;24320;56.980;24.336;2023-04-29T14:09:14;15.00;61.90
28654;DHT22;24320;56.980;24.336;2023-04-29T14:11:44;15.00;63.50
28654;DHT22;24320;56.980;24.336;2023-04-29T14:14:15;14.90;62.50
28654;DHT22;24320;56.980;24.336;2023-04-29T14:17:03;14.90;63.80
28654;DHT22;24320;56.980;24.336;2023-04-29T14:19:30;14.80;59.70
28654;DHT22;24320;56.980;24.336;2023-04-29T14:21:57;14.90;60.60
28654;DHT22;24320;56.980;24.336;2023-04-29T14:24:24;14.90;62.60
28654;DHT22;24320;56.980;24.336;2023-04-29T14:26:51;14.80;60.20
28654;DHT22;24320;56.980;24.336;2023-04-29T14:29:21;14.80;62.80
28654;DHT22;24320;56.980;24.336;2023-04-29T14:31:49;14.90;59.50
28654;DHT22;24320;56.980;24.336;2023-04-29T14:34:16;14.90;60.60
28654;DHT22;24320;56.980;24.336;2023-04-29T14:36:45;14.80;61.00
28654;DHT22;24320;56.980;24.336;2023-04-29T14:39:14;14.80;62.80
28654;DHT22;24320;56.980;24.336;2023-04-29T14:41:41;15.00;59.80
28654;DHT22;24320;56.980;24.336;2023-04-29T14:44:08;15.10;59.40
28654;DHT22;24320;56.980;24.336;2023-04-29T14:46:35;15.10;60.60
28654;DHT22;24320;56.980;24.336;2023-04-29T14:49:02;15.00;60.40
28654;DHT22;24320;56.980;24.336;2023-04-29T14:51:29;15.10;60.80
28654;DHT22;24320;56.980;24.336;2023-04-29T14:53:57;15.20;60.70
28654;DHT22;24320;56.980;24.336;2023-04-29T14:56:24;15.20;59.30
28654;DHT22;24320;56.980;24.336;2023-04-29T14:58:52;15.20;59.10
28654;DHT22;24320;56.980;24.336;2023-04-29T15:01:40;15.20;60.60
28654;DHT22;24320;56.980;24.336;2023-04-29T15:04:07;15.20;64.20
28654;DHT22;24320;56.980;24.336;2023-04-29T15:06:34;15.20;60.40
28654;DHT22;24320;56.980;24.336;2023-04-29T15:09:03;15.20;59.50
28654;DHT22;24320;56.980;24.336;2023-04-29T15:11:30;15.10;59.50
28654;DHT22;24320;56.980;24.336;2023-04-29T15:13:57;15.20;59.90
28654;DHT22;24320;56.980;24.336;2023-04-29T15:16:24;15.20;59.60
28654;DHT22;24320;56.980;24.336;2023-04-29T15:18:52;15.20;60.90
28654;DHT22;24320;56.980;24.336;2023-04-29T15:21:19;15.20;60.80
28654;DHT22;24320;56.980;24.336;2023-04-29T15:23:47;15.20;59.30
28654;DHT22;24320;56.980;24.336;2023-04-29T15:26:14;15.10;61.60
28654;DHT22;24320;56.980;24.336;2023-04-29T15:28:41;15.10;60.60
28654;DHT22;24320;56.980;24.336;2023-04-29T15:31:13;15.20;59.00
28654;DHT22;24320;56.980;24.336;2023-04-29T15:33:40;15.00;59.70
28654;DHT22;24320;56.980;24.336;2023-04-29T15:36:07;15.00;59.40
28654;DHT22;24320;56.980;24.336;2023-04-29T15:38:34;14.90;59.70
28654;DHT22;24320;56.980;24.336;2023-04-29T15:41:01;14.90;59.50
28654;DHT22;24320;56.980;24.336;2023-04-29T15:43:30;14.90;59.90
28654;DHT22;24320;56.980;24.336;2023-04-29T15:45:58;14.70;59.80
28654;DHT22;24320;56.980;24.336;2023-04-29T15:48:25;14.70;63.20
28654;DHT22;24320;56.980;24.336;2023-04-29T15:50:53;14.60;61.10
28654;DHT22;24320;56.980;24.336;2023-04-29T15:53:20;14.60;64.30
28654;DHT22;24320;56.980;24.336;2023-04-29T15:55:47;14.60;63.20
28654;DHT22;24320;56.980;24.336;2023-04-29T15:58:14;14.60;63.60
28654;DHT22;24320;56.980;24.336;2023-04-29T16:00:41;14.60;63.80
28654;DHT22;24320;56.980;24.336;2023-04-29T16:03:08;14.60;60.80